createdAt,value
2018-11-06T00:01:53.117Z,63.53
2018-11-06T00:05:02.808Z,67.10
2018-11-06T00:08:07.089Z,63.57
2018-11-06T00:11:12.294Z,62.80
2018-11-06T00:14:16.579Z,63.93
2018-11-06T00:17:20.840Z,65.20
2018-11-06T00:20:25.130Z,64.50
2018-11-06T00:23:29.417Z,64.27
2018-11-06T00:26:33.701Z,66.00
2018-11-06T00:29:38.033Z,62.60
2018-11-06T00:32:42.950Z,65.73
2018-11-06T00:35:47.251Z,64.30
2018-11-06T00:38:51.547Z,61.70
2018-11-06T00:41:55.845Z,64.00
2018-11-06T00:45:00.102Z,60.93
2018-11-06T00:48:04.359Z,63.30
2018-11-06T00:51:08.666Z,63.37
2018-11-06T00:54:12.957Z,62.73
2018-11-06T00:57:17.241Z,61.80
2018-11-06T01:00:21.557Z,60.67
2018-11-06T01:03:31.209Z,60.30
2018-11-06T01:06:35.553Z,61.30
2018-11-06T01:09:39.851Z,63.63
2018-11-06T01:12:44.110Z,63.03
2018-11-06T01:15:48.404Z,61.80
2018-11-06T01:18:52.765Z,59.60
2018-11-06T01:21:57.035Z,62.17
2018-11-06T01:25:02.140Z,62.50
2018-11-06T01:28:06.799Z,63.83
2018-11-06T01:31:11.227Z,61.13
2018-11-06T01:34:15.597Z,62.03
2018-11-06T01:37:19.974Z,62.33
2018-11-06T01:40:24.363Z,60.77
2018-11-06T01:43:28.751Z,62.90
2018-11-06T01:46:33.129Z,63.13
2018-11-06T01:49:37.552Z,63.63
2018-11-06T01:52:43.032Z,61.70
2018-11-06T01:55:47.296Z,60.60
2018-11-06T01:58:51.646Z,60.93
2018-11-06T02:01:55.972Z,62.20
2018-11-06T02:05:00.283Z,61.20
2018-11-06T02:08:04.540Z,61.60
2018-11-06T02:11:08.845Z,61.83
2018-11-06T02:14:13.117Z,61.47
2018-11-06T02:17:17.404Z,62.03
2018-11-06T02:20:21.681Z,63.40
2018-11-06T02:23:25.974Z,62.67
2018-11-06T02:26:30.276Z,61.30
2018-11-06T02:29:34.561Z,61.60
2018-11-06T02:32:38.846Z,62.73
2018-11-06T02:35:43.132Z,62.47
2018-11-06T02:38:47.574Z,61.67
2018-11-06T02:41:51.853Z,62.33
2018-11-06T02:44:56.098Z,63.60
2018-11-06T02:48:00.353Z,63.03
2018-11-06T02:51:04.638Z,60.13
2018-11-06T02:54:08.904Z,62.10
2018-11-06T02:57:13.198Z,61.53
2018-11-06T03:00:18.295Z,63.20
2018-11-06T03:03:22.585Z,65.37
2018-11-06T03:06:26.858Z,61.37
2018-11-06T03:09:31.142Z,62.67
2018-11-06T03:12:35.429Z,63.53
2018-11-06T03:15:39.697Z,61.33
2018-11-06T03:18:43.953Z,62.47
2018-11-06T03:21:48.212Z,63.27
2018-11-06T03:24:52.492Z,63.43
2018-11-06T03:27:56.777Z,61.23
2018-11-06T03:31:01.063Z,64.40
2018-11-06T03:34:05.522Z,62.17
2018-11-06T03:37:09.813Z,66.50
2018-11-06T03:40:14.561Z,63.20
2018-11-06T03:43:18.821Z,63.40
2018-11-06T03:46:23.128Z,63.53
2018-11-06T03:49:27.385Z,60.97
2018-11-06T03:52:31.665Z,62.90
2018-11-06T03:55:35.925Z,66.03
2018-11-06T03:58:40.225Z,65.67
2018-11-06T04:01:44.493Z,64.70
2018-11-06T04:04:48.746Z,62.07
2018-11-06T04:07:53.069Z,65.20
2018-11-06T04:10:57.359Z,60.57
2018-11-06T04:14:01.655Z,62.27
2018-11-06T04:17:06.045Z,63.37
2018-11-06T04:20:10.925Z,58.67
2018-11-06T04:23:15.268Z,61.87
2018-11-06T04:26:19.573Z,62.80
2018-11-06T04:29:23.862Z,61.47
2018-11-06T04:32:28.136Z,59.50
2018-11-06T04:35:32.513Z,63.77
2018-11-06T04:38:36.790Z,61.93
2018-11-06T04:41:41.089Z,65.40
2018-11-06T04:44:45.380Z,63.67
2018-11-06T04:47:49.695Z,64.53
2018-11-06T04:50:53.966Z,63.57
2018-11-06T04:54:00.288Z,66.33
2018-11-06T04:57:04.564Z,65.67
2018-11-06T05:00:11.301Z,63.77
2018-11-06T05:03:15.585Z,63.00
2018-11-06T05:06:19.920Z,65.90
2018-11-06T05:09:24.228Z,67.67
2018-11-06T05:12:28.489Z,66.50
2018-11-06T05:15:32.768Z,64.50
2018-11-06T05:18:37.100Z,64.40
2018-11-06T05:21:41.424Z,63.27
2018-11-06T05:24:45.687Z,60.23
2018-11-06T05:27:49.966Z,57.77
2018-11-06T05:30:54.283Z,56.93
2018-11-06T05:33:58.517Z,56.93
2018-11-06T05:37:02.854Z,55.33
2018-11-06T05:40:24.249Z,59.87
2018-11-06T05:43:28.524Z,59.53
2018-11-06T05:46:32.822Z,54.17
2018-11-06T05:49:37.099Z,54.90
2018-11-06T05:52:41.369Z,55.43
2018-11-06T05:55:45.644Z,55.10
2018-11-06T05:58:49.948Z,52.40
2018-11-06T06:01:54.209Z,53.70
2018-11-06T06:04:58.507Z,56.47
2018-11-06T06:08:02.849Z,53.33
2018-11-06T06:11:07.575Z,56.57
2018-11-06T06:14:11.820Z,55.63
2018-11-06T06:17:16.169Z,55.27
2018-11-06T06:20:20.418Z,56.40
2018-11-06T06:23:24.728Z,51.73
2018-11-06T06:26:29.005Z,51.10
2018-11-06T06:29:33.340Z,50.13
2018-11-06T06:32:37.617Z,52.00
2018-11-06T06:35:41.924Z,51.30
2018-11-06T06:38:46.295Z,52.87
2018-11-06T06:41:50.517Z,51.93
2018-11-06T06:44:54.801Z,50.83
2018-11-06T06:47:59.102Z,52.83
2018-11-06T06:51:03.429Z,52.87
2018-11-06T06:54:07.809Z,52.57
2018-11-06T06:57:12.098Z,58.10
2018-11-06T07:00:17.584Z,56.57
2018-11-06T07:03:22.202Z,52.07
2018-11-06T07:06:26.458Z,50.37
2018-11-06T07:09:30.816Z,56.00
2018-11-06T07:12:35.071Z,52.60
2018-11-06T07:15:39.409Z,50.77
2018-11-06T07:18:43.829Z,54.10
2018-11-06T07:21:47.987Z,53.60
2018-11-06T07:24:52.362Z,51.43
2018-11-06T07:27:56.671Z,53.63
2018-11-06T07:31:01.040Z,52.87
2018-11-06T07:34:05.485Z,51.23
2018-11-06T07:37:09.733Z,52.57
2018-11-06T07:40:15.627Z,52.37
2018-11-06T07:43:19.890Z,48.00
2018-11-06T07:46:24.171Z,52.23
2018-11-06T07:49:28.413Z,49.90
2018-11-06T07:52:32.682Z,50.50
2018-11-06T07:55:36.967Z,50.80
2018-11-06T07:58:41.218Z,51.43
2018-11-06T08:01:45.436Z,51.17
2018-11-06T08:04:49.726Z,48.33
2018-11-06T08:07:54.011Z,47.67
2018-11-06T08:10:58.254Z,51.07
2018-11-06T08:14:02.524Z,50.27
2018-11-06T08:17:07.258Z,49.83
2018-11-06T08:20:11.560Z,49.43
2018-11-06T08:23:15.837Z,50.50
2018-11-06T08:26:20.112Z,50.67
2018-11-06T08:29:24.539Z,50.77
2018-11-06T08:32:29.214Z,49.73
2018-11-06T08:35:33.224Z,50.00
2018-11-06T08:38:37.522Z,53.00
2018-11-06T08:41:41.918Z,54.33
2018-11-06T08:44:46.320Z,52.17
2018-11-06T08:47:50.642Z,52.60
2018-11-06T08:50:55.006Z,53.30
2018-11-06T08:53:59.350Z,53.73
2018-11-06T08:57:03.664Z,56.57
2018-11-06T09:00:11.785Z,57.10
2018-11-06T09:03:16.256Z,57.30
2018-11-06T09:06:20.541Z,67.60
2018-11-06T09:09:24.797Z,53.00
2018-11-06T09:12:29.077Z,53.30
2018-11-06T09:15:33.385Z,57.03
2018-11-06T09:18:37.725Z,54.63
2018-11-06T09:21:42.036Z,53.20
2018-11-06T09:24:46.272Z,54.30
2018-11-06T09:27:50.559Z,56.50
2018-11-06T09:30:54.890Z,52.87
2018-11-06T09:33:59.647Z,53.43
2018-11-06T09:37:03.889Z,53.27
2018-11-06T09:40:10.724Z,49.10
2018-11-06T09:43:14.989Z,43.93
2018-11-06T09:46:19.240Z,46.33
2018-11-06T09:49:23.545Z,48.90
2018-11-06T09:52:27.790Z,50.33
2018-11-06T09:55:33.638Z,52.17
2018-11-06T09:58:38.434Z,52.27
2018-11-06T10:01:42.800Z,53.93
2018-11-06T10:04:48.137Z,54.80
2018-11-06T10:07:52.590Z,52.60
2018-11-06T10:10:56.944Z,54.00
2018-11-06T10:14:01.949Z,54.23
2018-11-06T10:17:06.400Z,53.90
2018-11-06T10:20:12.013Z,53.33
2018-11-06T10:23:16.327Z,49.50
2018-11-06T10:26:20.576Z,52.20
2018-11-06T10:29:24.976Z,50.97
2018-11-06T10:32:29.233Z,51.20
2018-11-06T10:35:33.628Z,49.77
2018-11-06T10:38:37.910Z,52.57
2018-11-06T10:41:42.244Z,51.17
2018-11-06T10:44:46.575Z,51.53
2018-11-06T10:47:50.854Z,51.93
2018-11-06T10:50:55.132Z,50.60
2018-11-06T10:53:59.458Z,51.80
2018-11-06T10:57:03.773Z,53.07
2018-11-06T11:00:16.018Z,52.43
2018-11-06T11:03:25.725Z,52.63
2018-11-06T11:06:30.122Z,51.77
2018-11-06T11:09:34.500Z,49.03
2018-11-06T11:12:38.920Z,48.93
2018-11-06T11:15:43.088Z,49.63
2018-11-06T11:18:47.892Z,50.90
2018-11-06T11:21:52.236Z,52.60
2018-11-06T11:24:56.467Z,52.37
2018-11-06T11:28:00.860Z,54.03
2018-11-06T11:31:05.512Z,56.03
2018-11-06T11:34:09.787Z,51.47
2018-11-06T11:37:14.125Z,52.20
2018-11-06T11:40:18.682Z,50.53
2018-11-06T11:43:23.578Z,49.33
2018-11-06T11:46:27.850Z,47.67
2018-11-06T11:49:32.270Z,48.07
2018-11-06T11:52:36.586Z,45.87
2018-11-06T11:55:40.894Z,44.40
2018-11-06T11:58:45.146Z,43.87
2018-11-06T12:01:49.540Z,45.47
2018-11-06T12:04:53.868Z,44.27
2018-11-06T12:07:58.096Z,44.63
2018-11-06T12:11:02.340Z,43.23
2018-11-06T12:14:06.726Z,43.13
2018-11-06T12:17:11.021Z,45.47
2018-11-06T12:20:15.801Z,44.80
2018-11-06T12:23:20.033Z,44.00
2018-11-06T12:26:24.305Z,42.43
2018-11-06T12:29:28.603Z,44.13
2018-11-06T12:32:32.906Z,41.73
2018-11-06T12:35:37.138Z,43.70
2018-11-06T12:38:41.414Z,44.50
2018-11-06T12:41:45.778Z,44.53
2018-11-06T12:44:50.016Z,48.33
2018-11-06T12:47:54.470Z,48.03
2018-11-06T12:50:58.699Z,46.63
2018-11-06T12:54:03.001Z,49.30
2018-11-06T12:57:07.266Z,56.43
2018-11-06T13:00:19.195Z,49.87
2018-11-06T13:03:23.465Z,53.57
2018-11-06T13:06:27.867Z,44.23
2018-11-06T13:09:32.104Z,44.43
2018-11-06T13:12:36.433Z,46.60
2018-11-06T13:15:40.700Z,44.57
2018-11-06T13:18:44.977Z,45.90
2018-11-06T13:21:49.216Z,46.40
2018-11-06T13:24:53.493Z,44.63
2018-11-06T13:27:57.766Z,43.77
2018-11-06T13:31:02.038Z,44.70
2018-11-06T13:34:06.298Z,42.47
2018-11-06T13:37:10.572Z,42.10
2018-11-06T13:40:15.975Z,41.97
2018-11-06T13:43:20.294Z,40.97
2018-11-06T13:46:24.509Z,40.50
2018-11-06T13:49:28.920Z,42.53
2018-11-06T13:52:33.256Z,43.87
2018-11-06T13:55:37.563Z,44.23
2018-11-06T13:58:41.937Z,43.17
2018-11-06T14:01:47.229Z,42.50
2018-11-06T14:04:51.630Z,43.67
2018-11-06T14:07:56.024Z,44.40
2018-11-06T14:11:00.306Z,42.97
2018-11-06T14:14:04.684Z,44.00
2018-11-06T14:17:08.928Z,42.50
2018-11-06T14:20:14.516Z,43.73
2018-11-06T14:23:19.147Z,43.87
2018-11-06T14:26:23.451Z,46.13
2018-11-06T14:29:27.660Z,50.63
2018-11-06T14:32:31.944Z,40.37
2018-11-06T14:35:36.248Z,40.00
2018-11-06T14:38:40.504Z,39.33
2018-11-06T14:41:44.791Z,39.77
2018-11-06T14:44:49.033Z,42.00
2018-11-06T14:47:53.340Z,40.50
2018-11-06T14:50:57.552Z,40.87
2018-11-06T14:54:01.843Z,41.03
2018-11-06T14:57:06.504Z,42.80
2018-11-06T15:00:17.451Z,41.03
2018-11-06T15:03:23.116Z,41.60
2018-11-06T15:06:27.362Z,42.40
2018-11-06T15:09:32.200Z,41.23
2018-11-06T15:12:36.503Z,39.33
2018-11-06T15:15:40.810Z,41.27
2018-11-06T15:18:45.166Z,38.63
2018-11-06T15:21:49.440Z,39.90
2018-11-06T15:24:53.744Z,38.87
2018-11-06T15:27:58.020Z,49.93
2018-11-06T15:31:02.269Z,40.03
2018-11-06T15:34:07.887Z,37.57
2018-11-06T15:37:12.544Z,38.33
2018-11-06T15:40:20.074Z,38.83
2018-11-06T15:43:24.543Z,38.70
2018-11-06T15:46:29.054Z,38.87
2018-11-06T15:49:37.869Z,42.43
2018-11-06T15:52:42.909Z,39.13
2018-11-06T15:55:47.364Z,40.87
2018-11-06T15:58:54.264Z,39.00
2018-11-06T16:01:59.282Z,38.13
2018-11-06T16:05:03.955Z,38.87
2018-11-06T16:08:09.287Z,39.37
2018-11-06T16:11:14.127Z,40.10
2018-11-06T16:14:18.635Z,41.07
2018-11-06T16:17:23.232Z,40.50
2018-11-06T16:20:30.015Z,40.93
2018-11-06T16:23:35.358Z,38.23
2018-11-06T16:26:40.561Z,38.90
2018-11-06T16:29:45.988Z,39.40
2018-11-06T16:32:51.915Z,41.93
2018-11-06T16:35:56.413Z,39.00
2018-11-06T16:39:00.793Z,40.07
2018-11-06T16:42:06.493Z,38.47
2018-11-06T16:45:16.330Z,37.20
2018-11-06T16:48:23.924Z,38.97
2018-11-06T16:51:29.075Z,43.07
2018-11-06T16:54:33.731Z,49.10
2018-11-06T16:57:38.819Z,45.67
2018-11-06T17:00:43.433Z,52.10
2018-11-06T17:03:47.745Z,43.40
2018-11-06T17:06:53.853Z,43.90
2018-11-06T17:09:58.414Z,37.50
2018-11-06T17:13:04.835Z,37.10
2018-11-06T17:16:09.889Z,35.27
2018-11-06T17:19:14.907Z,35.27
2018-11-06T17:22:22.752Z,34.27
2018-11-06T17:25:27.749Z,35.33
2018-11-06T17:28:33.158Z,37.03
2018-11-06T17:31:38.568Z,38.77
2018-11-06T17:34:42.837Z,34.83
2018-11-06T17:37:47.135Z,33.27
2018-11-06T17:40:53.034Z,31.23
2018-11-06T17:43:59.395Z,30.70
2018-11-06T17:47:05.620Z,32.30
2018-11-06T17:50:12.160Z,32.60
2018-11-06T17:53:16.639Z,37.83
2018-11-06T17:56:21.398Z,35.63
2018-11-06T17:59:26.339Z,36.50
2018-11-06T18:02:31.558Z,33.57
2018-11-06T18:05:38.984Z,35.30
2018-11-06T18:08:43.607Z,34.60
2018-11-06T18:11:51.018Z,33.23
2018-11-06T18:14:56.348Z,37.27
2018-11-06T18:18:00.900Z,33.20
2018-11-06T18:21:07.999Z,33.97
2018-11-06T18:24:14.183Z,32.80
2018-11-06T18:27:20.557Z,34.47
2018-11-06T18:30:24.869Z,34.30
2018-11-06T18:33:29.149Z,35.77
2018-11-06T18:36:33.429Z,36.67
2018-11-06T18:39:37.701Z,37.80
2018-11-06T18:42:42.311Z,35.57
2018-11-06T18:45:46.592Z,33.57
2018-11-06T18:48:50.823Z,34.97
2018-11-06T18:51:55.149Z,34.33
2018-11-06T18:54:59.388Z,37.23
2018-11-06T18:58:03.706Z,36.90
2018-11-06T19:01:07.926Z,35.67
2018-11-06T19:04:12.222Z,36.57
2018-11-06T19:07:16.478Z,37.10
2018-11-06T19:10:20.792Z,40.27
2018-11-06T19:13:25.100Z,38.47
2018-11-06T19:16:29.350Z,38.90
2018-11-06T19:19:33.678Z,37.33
2018-11-06T19:22:37.975Z,37.47
2018-11-06T19:25:42.232Z,38.33
2018-11-06T19:28:46.482Z,36.80
2018-11-06T19:31:50.770Z,37.13
2018-11-06T19:34:55.017Z,37.20
2018-11-06T19:37:59.274Z,36.53
2018-11-06T19:41:03.512Z,38.70
2018-11-06T19:44:08.233Z,36.57
2018-11-06T19:47:12.519Z,36.73
2018-11-06T19:50:18.246Z,37.57
2018-11-06T19:53:22.564Z,37.37
2018-11-06T19:56:26.843Z,37.57
2018-11-06T19:59:31.509Z,39.73
2018-11-06T20:02:35.751Z,41.30
2018-11-06T20:05:39.996Z,37.57
2018-11-06T20:08:44.244Z,36.53
2018-11-06T20:11:48.573Z,36.77
2018-11-06T20:14:52.738Z,35.77
2018-11-06T20:17:57.066Z,33.60
2018-11-06T20:21:01.238Z,32.93
2018-11-06T20:24:05.806Z,32.60
2018-11-06T20:27:10.026Z,31.63
2018-11-06T20:30:17.182Z,32.83
2018-11-06T20:33:21.482Z,30.33
2018-11-06T20:36:25.733Z,30.87
2018-11-06T20:39:29.999Z,30.93
2018-11-06T20:42:34.261Z,31.70
2018-11-06T20:45:38.603Z,29.40
2018-11-06T20:48:42.924Z,30.90
2018-11-06T20:51:47.222Z,30.40
2018-11-06T20:54:51.481Z,30.53
2018-11-06T20:57:55.748Z,28.83
2018-11-06T21:01:00.041Z,30.00
2018-11-06T21:04:04.289Z,27.87
2018-11-06T21:07:08.565Z,34.03
2018-11-06T21:10:13.683Z,32.47
2018-11-06T21:13:18.031Z,31.20
2018-11-06T21:16:22.253Z,31.83
2018-11-06T21:19:26.525Z,29.40
2018-11-06T21:22:30.761Z,31.20
2018-11-06T21:25:35.304Z,31.67
2018-11-06T21:28:39.330Z,31.73
2018-11-06T21:31:43.588Z,32.03
2018-11-06T21:34:48.712Z,31.47
2018-11-06T21:37:52.966Z,33.60
2018-11-06T21:40:57.255Z,33.63
2018-11-06T21:44:01.526Z,32.83
2018-11-06T21:47:05.967Z,34.97
2018-11-06T21:50:11.467Z,34.20
2018-11-06T21:53:15.739Z,35.53
2018-11-06T21:56:20.030Z,34.23
2018-11-06T21:59:24.321Z,36.27
2018-11-06T22:02:28.589Z,35.37
2018-11-06T22:05:32.856Z,33.87
2018-11-06T22:08:37.104Z,35.03
2018-11-06T22:11:41.457Z,33.83
2018-11-06T22:14:45.733Z,35.93
2018-11-06T22:17:50.053Z,34.77
2018-11-06T22:20:54.367Z,35.13
2018-11-06T22:23:58.687Z,34.40
2018-11-06T22:27:02.975Z,35.13
2018-11-06T22:30:11.717Z,35.13
2018-11-06T22:33:16.056Z,34.20
2018-11-06T22:36:20.329Z,33.97
2018-11-06T22:39:24.649Z,34.93
2018-11-06T22:42:28.889Z,34.03
2018-11-06T22:45:33.159Z,34.23
2018-11-06T22:48:38.501Z,34.50
2018-11-06T22:51:42.796Z,34.70
2018-11-06T22:54:47.060Z,36.00
2018-11-06T22:57:51.336Z,34.70
2018-11-06T23:01:00.896Z,36.57
2018-11-06T23:04:05.188Z,37.63
2018-11-06T23:07:13.710Z,36.00
2018-11-06T23:10:17.858Z,36.03
2018-11-06T23:13:22.147Z,36.87
2018-11-06T23:16:26.417Z,35.40
2018-11-06T23:19:30.704Z,37.73
2018-11-06T23:22:34.994Z,38.03
2018-11-06T23:25:39.269Z,38.10
2018-11-06T23:28:43.514Z,38.60
2018-11-06T23:31:47.853Z,35.90
2018-11-06T23:34:52.081Z,38.87
2018-11-06T23:37:56.386Z,38.37
2018-11-06T23:41:00.701Z,39.87
2018-11-06T23:44:05.117Z,39.03
2018-11-06T23:47:09.399Z,36.43
2018-11-06T23:50:13.661Z,40.67
2018-11-06T23:53:17.960Z,40.03
2018-11-06T23:56:22.241Z,40.67
2018-11-06T23:59:27.769Z,43.30
